Time;durP1;ratioP1;P1;durP2;ratioP2;P2;SDS_P1;SDS_P2;PMS_P1;PMS_P2;Temp;Humidity;BMP_temperature;BMP_pressure;BME280_temperature;BME280_humidity;BME280_pressure;Samples;Min_cycle;Max_cycle;Signal;HPM_P1;HPM_P2
2023/09/21 00:00:20;;;;;;;3.17;1.33;;;;;;;;;;5035538;28;20095;-65
2023/09/21 00:02:50;;;;;;;2.60;1.30;;;18.30;99.90;;;;;;5049132;28;20451;-65
2023/09/21 00:05:21;;;;;;;2.85;1.45;;;;;;;;;;5054160;28;20097;-65
2023/09/21 00:07:48;;;;;;;3.97;1.83;;;;;;;;;;5037827;28;20056;-65
2023/09/21 00:10:14;;;;;;;4.10;1.20;;;;;;;;;;5035041;28;20227;-65
2023/09/21 00:12:40;;;;;;;2.80;1.20;;;;;;;;;;5036490;28;20077;-65
2023/09/21 00:15:07;;;;;;;3.90;1.60;;;18.40;99.90;;;;;;5019964;28;20052;-65
2023/09/21 00:17:42;;;;;;;6.50;2.08;;;18.30;99.90;;;;;;5054485;28;20040;-65
2023/09/21 00:20:16;;;;;;;3.15;1.70;;;18.40;99.90;;;;;;5052942;28;20550;-65
2023/09/21 00:22:43;;;;;;;3.58;2.42;;;;;;;;;;5044224;28;20571;-65
2023/09/21 00:25:09;;;;;;;5.45;2.38;;;18.30;99.90;;;;;;5034004;28;20044;-65
2023/09/21 00:27:35;;;;;;;5.70;1.50;;;;;;;;;;5053691;28;20040;-65
2023/09/21 00:30:05;;;;;;;3.80;1.65;;;18.40;99.90;;;;;;5052125;28;20127;-65
2023/09/21 00:32:31;;;;;;;2.92;1.48;;;18.40;99.90;;;;;;5054432;28;20040;-65
2023/09/21 00:34:57;;;;;;;2.35;1.25;;;;;;;;;;5032773;28;20111;-65
2023/09/21 00:37:23;;;;;;;6.03;1.83;;;;;;;;;;5053198;28;20044;-65
2023/09/21 00:39:52;;;;;;;5.35;1.42;;;;;;;;;;5029048;28;20060;-65
2023/09/21 00:42:18;;;;;;;3.65;1.50;;;;;;;;;;5056124;28;20787;-65
2023/09/21 00:44:45;;;;;;;5.38;1.27;;;;;;;;;;5040905;28;20066;-65
2023/09/21 00:47:13;;;;;;;6.22;1.75;;;;;;;;;;5059435;28;20075;-65
2023/09/21 00:49:41;;;;;;;3.97;1.55;;;;;;;;;;5055808;28;20055;-65
2023/09/21 00:52:11;;;;;;;4.47;1.48;;;18.30;99.90;;;;;;5056662;28;20119;-65
2023/09/21 00:54:37;;;;;;;3.58;1.30;;;;;;;;;;5037386;28;20111;-65
2023/09/21 00:57:05;;;;;;;5.75;1.77;;;;;;;;;;5045772;28;20504;-65
2023/09/21 00:59:35;;;;;;;4.05;1.23;;;18.30;99.90;;;;;;5035090;28;20053;-65
2023/09/21 01:02:03;;;;;;;5.03;1.50;;;18.30;99.90;;;;;;5029512;28;20044;-65
2023/09/21 01:04:29;;;;;;;3.30;1.58;;;18.30;99.90;;;;;;5032148;28;20411;-65
2023/09/21 01:06:55;;;;;;;7.53;1.23;;;18.30;99.90;;;;;;5040720;28;20040;-65
2023/09/21 01:09:21;;;;;;;4.35;1.13;;;;;;;;;;5054939;28;20094;-65
2023/09/21 01:11:48;;;;;;;5.03;1.45;;;;;;;;;;5036451;28;20076;-65
2023/09/21 01:14:14;;;;;;;5.03;1.70;;;;;;;;;;5054487;28;20052;-65
2023/09/21 01:16:40;;;;;;;4.20;1.10;;;18.40;99.90;;;;;;5055981;28;20044;-65
2023/09/21 01:19:06;;;;;;;4.20;1.38;;;;;;;;;;5038502;28;20727;-65
2023/09/21 01:21:40;;;;;;;3.80;1.27;;;18.50;99.90;;;;;;5040311;28;20051;-65
2023/09/21 01:24:07;;;;;;;2.75;1.40;;;18.40;99.90;;;;;;5049249;28;20660;-65
2023/09/21 01:26:33;;;;;;;8.80;1.60;;;;;;;;;;5057824;28;20059;-65
2023/09/21 01:28:59;;;;;;;4.20;1.95;;;;;;;;;;5054300;28;20153;-65
2023/09/21 01:31:25;;;;;;;2.78;1.45;;;;;;;;;;5055933;28;20071;-65
2023/09/21 01:33:51;;;;;;;5.80;1.35;;;;;;;;;;5035645;28;20467;-65
2023/09/21 01:36:18;;;;;;;2.08;1.13;;;18.20;99.90;;;;;;5055891;28;20044;-65
2023/09/21 01:38:46;;;;;;;4.65;1.40;;;18.30;99.90;;;;;;5054716;28;20123;-65
2023/09/21 01:41:16;;;;;;;2.92;1.73;;;18.50;99.90;;;;;;5063583;28;20063;-65
2023/09/21 01:43:41;;;;;;;2.55;1.10;;;18.00;99.90;;;;;;5051299;28;20429;-65
2023/09/21 01:46:08;;;;;;;2.55;1.73;;;18.30;99.90;;;;;;5047218;28;20045;-65
2023/09/21 01:48:34;;;;;;;5.10;1.27;;;;;;;;;;5040770;28;20102;-65
2023/09/21 01:51:00;;;;;;;3.80;1.48;;;;;;;;;;5055763;28;20033;-65
2023/09/21 01:53:27;;;;;;;3.25;1.52;;;;;;;;;;5052332;28;20065;-65
2023/09/21 01:55:52;;;;;;;5.88;1.23;;;18.30;99.90;;;;;;5054703;28;20094;-65
2023/09/21 01:58:22;;;;;;;5.60;1.38;;;18.50;99.90;;;;;;5057465;28;20040;-65
2023/09/21 02:00:48;;;;;;;3.00;1.40;;;18.30;99.90;;;;;;5049212;28;20128;-65
2023/09/21 02:03:18;;;;;;;3.53;1.50;;;18.30;99.90;;;;;;5033980;28;20082;-65
2023/09/21 02:05:46;;;;;;;3.05;1.25;;;;;;;;;;5044968;28;20938;-65
2023/09/21 02:08:12;;;;;;;3.53;1.15;;;18.50;99.90;;;;;;5049240;28;20041;-65
2023/09/21 02:10:40;;;;;;;4.93;1.50;;;18.40;99.90;;;;;;5031835;28;20094;-65
2023/09/21 02:13:06;;;;;;;2.92;1.30;;;18.40;99.90;;;;;;5050782;28;20079;-65
2023/09/21 02:15:34;;;;;;;3.92;1.60;;;18.50;99.90;;;;;;5052273;28;20097;-65
2023/09/21 02:18:02;;;;;;;4.22;1.35;;;18.20;99.90;;;;;;5059345;28;20032;-65
2023/09/21 02:20:30;;;;;;;3.83;1.70;;;18.30;99.90;;;;;;5038333;28;20049;-65
2023/09/21 02:23:01;;;;;;;5.25;1.48;;;18.20;99.90;;;;;;5055287;28;20124;-65
2023/09/21 02:25:31;;;;;;;3.80;1.67;;;18.10;99.90;;;;;;5045709;28;20422;-65
2023/09/21 02:27:57;;;;;;;3.58;1.17;;;18.20;99.90;;;;;;5034390;28;20106;-65
2023/09/21 02:30:24;;;;;;;4.00;1.95;;;;;;;;;;5038553;28;20462;-65
2023/09/21 02:32:55;;;;;;;3.85;1.40;;;18.00;99.90;;;;;;5034444;28;20086;-65
2023/09/21 02:35:24;;;;;;;4.97;1.25;;;18.50;99.90;;;;;;5052489;28;20043;-65
2023/09/21 02:37:51;;;;;;;4.90;1.33;;;18.50;99.90;;;;;;5059819;28;20800;-65
2023/09/21 02:40:19;;;;;;;4.55;1.65;;;18.30;99.90;;;;;;5056464;28;20052;-65
2023/09/21 02:42:54;;;;;;;3.50;1.48;;;18.80;99.90;;;;;;5043401;28;20048;-65
2023/09/21 02:45:23;;;;;;;3.67;1.70;;;18.40;99.90;;;;;;5040939;28;20059;-65
2023/09/21 02:47:51;;;;;;;6.30;1.27;;;18.60;99.90;;;;;;5035607;28;20087;-65
2023/09/21 02:50:27;;;;;;;4.60;1.60;;;18.40;99.90;;;;;;5057632;28;20059;-66
2023/09/21 02:53:06;;;;;;;3.08;1.48;;;18.40;99.90;;;;;;5056087;28;20072;-65
2023/09/21 02:55:33;;;;;;;5.28;2.00;;;18.10;99.90;;;;;;5022668;28;20653;-65
2023/09/21 02:58:15;;;;;;;5.28;1.73;;;18.50;99.90;;;;;;5032540;28;20546;-65
2023/09/21 03:00:45;;;;;;;2.80;1.77;;;18.50;99.90;;;;;;5055128;28;21565;-65
2023/09/21 03:03:15;;;;;;;4.43;1.40;;;18.20;99.90;;;;;;5054956;28;20044;-65
2023/09/21 03:05:42;;;;;;;5.35;1.60;;;18.40;99.90;;;;;;5055143;28;20046;-65
2023/09/21 03:08:13;;;;;;;3.92;1.60;;;18.20;99.90;;;;;;5042513;28;20044;-65
2023/09/21 03:10:44;;;;;;;4.43;1.48;;;18.30;99.90;;;;;;5045217;28;20123;-65
2023/09/21 03:13:10;;;;;;;3.17;1.35;;;;;;;;;;5059812;28;20552;-65
2023/09/21 03:15:36;;;;;;;5.90;1.73;;;;;;;;;;5041445;28;20459;-65
2023/09/21 03:18:06;;;;;;;2.90;1.48;;;;;;;;;;5057583;28;20033;-65
2023/09/21 03:20:36;;;;;;;2.15;1.10;;;;;;;;;;5038953;28;20056;-65
2023/09/21 03:23:05;;;;;;;4.82;1.55;;;18.20;99.90;;;;;;5062952;28;20058;-65
2023/09/21 03:25:34;;;;;;;5.32;1.55;;;;;;;;;;5036014;28;20131;-65
2023/09/21 03:28:15;;;;;;;6.45;1.90;;;18.20;99.90;;;;;;5034272;28;20040;-65
2023/09/21 03:30:52;;;;;;;3.28;1.45;;;18.50;99.90;;;;;;5037941;28;20044;-65
2023/09/21 03:33:20;;;;;;;4.45;1.40;;;18.20;99.90;;;;;;5036796;28;20570;-65
2023/09/21 03:35:46;;;;;;;2.88;1.20;;;;;;;;;;5056105;28;20140;-65
2023/09/21 03:38:12;;;;;;;3.15;1.48;;;;;;;;;;5041668;28;20210;-65
2023/09/21 03:40:43;;;;;;;4.22;1.92;;;18.30;99.90;;;;;;5037336;28;20087;-65
2023/09/21 03:43:12;;;;;;;3.13;1.13;;;18.30;99.90;;;;;;5036967;28;20045;-65
2023/09/21 03:45:42;;;;;;;3.75;1.85;;;18.40;99.90;;;;;;5027932;28;20049;-65
2023/09/21 03:48:09;;;;;;;3.92;1.27;;;18.60;99.90;;;;;;5057713;28;20044;-65
2023/09/21 03:50:35;;;;;;;6.07;1.35;;;18.50;99.90;;;;;;5057315;28;20041;-65
2023/09/21 03:53:04;;;;;;;4.35;1.40;;;;;;;;;;5037250;28;20056;-65
2023/09/21 03:55:33;;;;;;;5.03;1.40;;;18.50;99.90;;;;;;5039425;28;20056;-65
2023/09/21 03:57:59;;;;;;;2.70;1.27;;;;;;;;;;5039993;28;20618;-65
2023/09/21 04:02:50;;;;;;;5.43;1.30;;;18.60;99.90;;;;;;5035695;28;20491;-65
2023/09/21 04:05:18;;;;;;;3.80;1.48;;;;;;;;;;5040003;28;20055;-65
2023/09/21 04:07:48;;;;;;;3.13;1.35;;;18.80;99.90;;;;;;5054578;28;20047;-65
2023/09/21 04:10:15;;;;;;;2.13;1.05;;;18.80;99.90;;;;;;5052258;28;20048;-65
2023/09/21 04:12:41;;;;;;;3.60;1.10;;;18.80;99.90;;;;;;5041172;28;20076;-65
2023/09/21 04:15:08;;;;;;;3.75;1.30;;;18.70;99.90;;;;;;5053953;28;20103;-65
2023/09/21 04:17:35;;;;;;;5.20;1.42;;;18.80;99.90;;;;;;5055409;28;20127;-65
2023/09/21 04:20:04;;;;;;;4.22;1.35;;;;;;;;;;5056876;28;20368;-65
2023/09/21 04:22:31;;;;;;;2.25;1.10;;;18.70;99.90;;;;;;5039191;28;20060;-65
2023/09/21 04:25:01;;;;;;;3.63;1.35;;;;;;;;;;5036270;28;20310;-65
2023/09/21 04:27:27;;;;;;;3.03;1.45;;;;;;;;;;5053143;28;20047;-65
2023/09/21 04:29:53;;;;;;;2.92;1.48;;;18.60;99.90;;;;;;5039667;28;20055;-65
2023/09/21 04:32:19;;;;;;;3.90;1.50;;;;;;;;;;5054160;28;20048;-65
2023/09/21 04:34:44;;;;;;;3.58;1.27;;;18.60;99.90;;;;;;5035707;28;20478;-65
2023/09/21 04:37:10;;;;;;;2.63;1.20;;;18.40;99.90;;;;;;5042458;28;20114;-65
2023/09/21 04:39:35;;;;;;;4.65;1.75;;;18.50;99.90;;;;;;5052346;28;20500;-65
2023/09/21 04:42:03;;;;;;;6.00;1.88;;;;;;;;;;5056589;28;20118;-65
2023/09/21 04:44:30;;;;;;;4.00;1.50;;;18.60;99.90;;;;;;5055203;28;20091;-65
2023/09/21 04:46:56;;;;;;;4.53;1.40;;;18.50;99.90;;;;;;5054220;28;20040;-65
2023/09/21 04:49:21;;;;;;;3.10;1.40;;;;;;;;;;5053267;28;20409;-65
2023/09/21 04:51:47;;;;;;;2.38;1.10;;;;;;;;;;5054443;28;20049;-65
2023/09/21 04:54:15;;;;;;;3.00;1.08;;;;;;;;;;5052513;28;20049;-66
2023/09/21 04:56:40;;;;;;;3.05;1.38;;;18.50;99.90;;;;;;5038793;28;20488;-65
2023/09/21 04:59:06;;;;;;;4.95;1.40;;;18.60;99.90;;;;;;5055381;28;20052;-65
2023/09/21 05:01:31;;;;;;;2.10;1.20;;;18.50;99.90;;;;;;5059186;28;20048;-65
2023/09/21 05:03:57;;;;;;;2.92;1.23;;;;;;;;;;5056252;28;20040;-65
2023/09/21 05:06:23;;;;;;;4.43;1.80;;;;;;;;;;5055818;28;20040;-65
2023/09/21 05:08:49;;;;;;;3.42;1.30;;;18.30;99.90;;;;;;5054967;28;20036;-65
2023/09/21 05:11:15;;;;;;;2.50;1.40;;;;;;;;;;5054594;28;20051;-65
2023/09/21 05:13:40;;;;;;;7.45;1.30;;;18.50;99.90;;;;;;5034718;28;20056;-65
2023/09/21 05:16:06;;;;;;;6.47;1.50;;;18.40;99.90;;;;;;5057425;28;20111;-65
2023/09/21 05:18:32;;;;;;;4.20;1.50;;;;;;;;;;5035010;28;20052;-65
2023/09/21 05:20:58;;;;;;;3.30;2.00;;;;;;;;;;5042332;28;20052;-65
2023/09/21 05:23:24;;;;;;;4.55;1.40;;;18.40;99.90;;;;;;5050844;28;20119;-65
2023/09/21 05:25:50;;;;;;;2.10;1.20;;;;;;;;;;5057745;28;20133;-65
2023/09/21 05:28:18;;;;;;;4.57;1.30;;;18.30;99.90;;;;;;5037396;28;20456;-65
2023/09/21 05:30:44;;;;;;;3.40;1.48;;;;;;;;;;5048050;28;20051;-65
2023/09/21 05:33:10;;;;;;;2.90;1.48;;;;;;;;;;5041501;28;20044;-65
2023/09/21 05:35:36;;;;;;;3.55;1.50;;;;;;;;;;5056139;28;20056;-65
2023/09/21 05:38:05;;;;;;;3.42;1.52;;;18.10;99.90;;;;;;5052673;28;20072;-65
2023/09/21 05:40:32;;;;;;;3.00;1.48;;;;;;;;;;5034544;28;20059;-65
2023/09/21 05:42:59;;;;;;;3.70;1.50;;;;;;;;;;5034568;28;20080;-65
2023/09/21 05:45:25;;;;;;;4.47;1.30;;;;;;;;;;5036701;28;20037;-65
2023/09/21 05:47:50;;;;;;;2.67;1.30;;;;;;;;;;5038689;28;20040;-65
2023/09/21 05:50:16;;;;;;;3.38;1.73;;;18.10;99.90;;;;;;5052971;28;20044;-65
2023/09/21 05:52:42;;;;;;;3.28;1.77;;;18.10;99.90;;;;;;5058208;28;20048;-65
2023/09/21 05:55:10;;;;;;;2.58;1.10;;;;;;;;;;5057943;28;20052;-65
2023/09/21 05:57:36;;;;;;;4.13;1.95;;;;;;;;;;5040548;28;20186;-65
2023/09/21 06:00:02;;;;;;;4.07;1.52;;;;;;;;;;5040651;28;20132;-65
2023/09/21 06:02:28;;;;;;;4.75;1.83;;;18.00;99.90;;;;;;5034979;28;20206;-65
2023/09/21 06:04:54;;;;;;;5.88;1.40;;;;;;;;;;5054326;28;20522;-65
2023/09/21 06:07:21;;;;;;;3.55;1.40;;;;;;;;;;5038774;28;20040;-65
2023/09/21 06:09:47;;;;;;;4.45;2.15;;;18.00;99.90;;;;;;5038710;28;20044;-65
2023/09/21 06:12:13;;;;;;;4.30;1.67;;;;;;;;;;5061641;28;20045;-65
2023/09/21 06:14:41;;;;;;;2.20;1.40;;;;;;;;;;5019908;28;20048;-65
2023/09/21 06:17:12;;;;;;;3.15;2.00;;;;;;;;;;5043885;28;20049;-65
2023/09/21 06:19:39;;;;;;;6.18;1.42;;;;;;;;;;5059175;28;20121;-65
2023/09/21 06:22:06;;;;;;;4.55;1.40;;;;;;;;;;5056670;28;20496;-65
2023/09/21 06:24:31;;;;;;;4.47;1.17;;;17.90;99.90;;;;;;5054702;28;20037;-65
2023/09/21 06:26:57;;;;;;;5.00;1.42;;;18.00;99.90;;;;;;5056372;28;20407;-65
2023/09/21 06:29:23;;;;;;;3.60;1.80;;;17.80;99.90;;;;;;5010399;28;20040;-65
2023/09/21 06:31:54;;;;;;;7.13;1.85;;;17.70;99.90;;;;;;5047788;28;20044;-66
2023/09/21 06:34:24;;;;;;;2.47;1.17;;;17.90;99.90;;;;;;5051102;28;20397;-69
2023/09/21 06:36:50;;;;;;;4.60;1.60;;;;;;;;;;5037873;28;20947;-66
2023/09/21 06:39:16;;;;;;;5.13;2.00;;;;;;;;;;5036476;28;20389;-67
2023/09/21 06:41:44;;;;;;;3.40;1.30;;;;;;;;;;5036093;28;20053;-66
2023/09/21 06:44:10;;;;;;;6.10;1.42;;;;;;;;;;5055364;28;20725;-66
2023/09/21 06:46:36;;;;;;;3.97;1.42;;;;;;;;;;5057915;28;20435;-66
2023/09/21 06:49:03;;;;;;;3.60;1.63;;;;;;;;;;5037776;28;20090;-66
2023/09/21 06:51:29;;;;;;;3.15;1.80;;;17.80;99.90;;;;;;5037564;28;20519;-66
2023/09/21 06:53:57;;;;;;;3.38;1.73;;;;;;;;;;5055799;28;20052;-67
2023/09/21 06:56:23;;;;;;;3.03;1.75;;;17.80;99.90;;;;;;5029180;28;20037;-66
2023/09/21 06:58:49;;;;;;;3.58;1.83;;;;;;;;;;5061496;28;20036;-66
2023/09/21 07:01:15;;;;;;;4.57;1.48;;;;;;;;;;5042082;28;20123;-66
2023/09/21 07:03:41;;;;;;;3.05;1.65;;;;;;;;;;5035505;28;20045;-66
2023/09/21 07:06:07;;;;;;;5.75;1.50;;;17.60;99.90;;;;;;5031166;28;20049;-66
2023/09/21 07:08:33;;;;;;;4.53;1.52;;;;;;;;;;5050692;28;20037;-66
2023/09/21 07:10:59;;;;;;;5.68;1.73;;;;;;;;;;5055459;28;20096;-66
2023/09/21 07:13:25;;;;;;;5.90;1.77;;;;;;;;;;5040522;28;20040;-66
2023/09/21 07:15:54;;;;;;;4.07;1.67;;;17.70;99.90;;;;;;5028595;28;20412;-66
2023/09/21 07:18:20;;;;;;;4.60;1.90;;;;;;;;;;5042616;28;20036;-66
2023/09/21 07:20:46;;;;;;;2.72;1.60;;;;;;;;;;5050434;28;20094;-66
2023/09/21 07:23:12;;;;;;;4.57;2.13;;;;;;;;;;5050214;28;20045;-66
2023/09/21 07:25:38;;;;;;;3.95;1.30;;;;;;;;;;5034503;28;20389;-66
2023/09/21 07:28:04;;;;;;;3.20;1.30;;;18.00;99.90;;;;;;5034069;28;20040;-66
2023/09/21 07:30:32;;;;;;;3.95;1.83;;;17.90;99.90;;;;;;5036442;28;20048;-66
2023/09/21 07:32:58;;;;;;;5.10;1.73;;;17.80;99.90;;;;;;5049911;28;20094;-66
2023/09/21 07:35:23;;;;;;;3.35;1.70;;;17.80;99.90;;;;;;5048475;28;20037;-66
2023/09/21 07:37:50;;;;;;;3.72;1.80;;;17.50;99.90;;;;;;5031403;28;20045;-66
2023/09/21 07:40:17;;;;;;;4.10;1.77;;;;;;;;;;5048182;28;20088;-66
2023/09/21 07:42:48;;;;;;;5.55;1.65;;;17.60;99.90;;;;;;5014193;28;20504;-66
2023/09/21 07:45:15;;;;;;;2.75;1.42;;;;;;;;;;5029972;28;20044;-66
2023/09/21 07:47:41;;;;;;;5.60;2.55;;;17.50;99.90;;;;;;5047182;28;20044;-66
2023/09/21 07:50:07;;;;;;;3.40;1.70;;;;;;;;;;5048148;28;20040;-66
2023/09/21 07:52:34;;;;;;;3.17;1.88;;;17.40;99.90;;;;;;5029852;28;20071;-66
2023/09/21 07:55:02;;;;;;;5.60;1.95;;;17.30;99.90;;;;;;5048465;28;20044;-66
2023/09/21 07:57:31;;;;;;;4.50;2.13;;;17.30;99.90;;;;;;5056496;28;20087;-66
2023/09/21 07:59:58;;;;;;;6.13;2.00;;;;;;;;;;5052636;28;20582;-66
2023/09/21 08:02:23;;;;;;;3.40;1.85;;;17.20;99.90;;;;;;5031973;28;20041;-66
2023/09/21 08:04:49;;;;;;;6.28;1.90;;;;;;;;;;5038412;28;20492;-66
2023/09/21 08:07:15;;;;;;;3.90;1.70;;;17.10;99.90;;;;;;5057014;28;20036;-66
2023/09/21 08:09:41;;;;;;;6.15;2.45;;;;;;;;;;5026131;28;20048;-66
2023/09/21 08:12:07;;;;;;;5.90;2.25;;;;;;;;;;5028606;28;20241;-66
2023/09/21 08:14:34;;;;;;;5.13;2.00;;;;;;;;;;5047889;28;20071;-66
2023/09/21 08:17:01;;;;;;;7.68;2.17;;;17.20;99.90;;;;;;5030394;28;20053;-66
2023/09/21 08:19:27;;;;;;;5.30;2.63;;;;;;;;;;5048169;28;20771;-66
2023/09/21 08:21:52;;;;;;;3.28;1.92;;;17.30;99.90;;;;;;5028935;28;20135;-66
2023/09/21 08:24:18;;;;;;;4.10;2.05;;;;;;;;;;5032779;28;20045;-66
2023/09/21 08:26:44;;;;;;;3.80;2.03;;;17.10;99.90;;;;;;5056324;28;20040;-66
2023/09/21 08:29:11;;;;;;;3.42;2.25;;;;;;;;;;5046200;28;20488;-66
2023/09/21 08:31:37;;;;;;;4.13;2.38;;;;;;;;;;5015976;28;20048;-66
2023/09/21 08:34:03;;;;;;;4.35;2.65;;;;;;;;;;5057175;28;20170;-66
2023/09/21 08:36:29;;;;;;;5.15;2.70;;;17.10;99.90;;;;;;5016766;28;20071;-66
2023/09/21 08:38:54;;;;;;;4.65;1.98;;;17.00;99.90;;;;;;5039759;28;20044;-66
2023/09/21 08:41:20;;;;;;;2.67;1.23;;;;;;;;;;5054765;28;20045;-66
2023/09/21 08:43:49;;;;;;;1.30;0.60;;;;;;;;;;5047678;28;20032;-66
2023/09/21 08:46:16;;;;;;;1.85;1.02;;;16.80;99.90;;;;;;5031026;28;20041;-66
2023/09/21 08:48:43;;;;;;;1.95;0.65;;;;;;;;;;5055467;28;20036;-66
2023/09/21 08:51:15;;;;;;;1.20;0.40;;;16.60;99.90;;;;;;5026500;28;20133;-66
2023/09/21 08:53:41;;;;;;;1.33;0.50;;;16.60;99.90;;;;;;5046714;28;20508;-66
2023/09/21 08:56:08;;;;;;;1.65;0.60;;;16.60;99.90;;;;;;5036053;28;20052;-66
2023/09/21 08:58:40;;;;;;;1.00;0.55;;;16.60;99.90;;;;;;5060648;28;20431;-66
2023/09/21 09:01:06;;;;;;;1.90;0.80;;;;;;;;;;5039181;28;20076;-66
2023/09/21 09:03:33;;;;;;;1.65;0.60;;;16.40;99.90;;;;;;5031104;28;20094;-66
2023/09/21 09:05:59;;;;;;;0.65;0.45;;;16.50;99.90;;;;;;5034160;28;20040;-66
2023/09/21 09:08:25;;;;;;;2.08;0.40;;;16.40;99.90;;;;;;5025993;28;20037;-66
2023/09/21 09:10:53;;;;;;;2.08;0.60;;;16.00;99.90;;;;;;5027299;28;20045;-66
2023/09/21 09:13:19;;;;;;;2.20;0.50;;;;;;;;;;5026268;28;20075;-66
2023/09/21 09:15:45;;;;;;;1.77;0.50;;;16.30;99.90;;;;;;5054071;28;20033;-66
2023/09/21 09:18:13;;;;;;;1.35;0.60;;;16.20;99.90;;;;;;5028449;28;20073;-66
2023/09/21 09:20:44;;;;;;;1.38;0.60;;;16.40;99.90;;;;;;5028844;28;20079;-66
2023/09/21 09:23:10;;;;;;;2.00;0.50;;;16.30;99.90;;;;;;5049406;28;20126;-66
2023/09/21 09:25:37;;;;;;;1.67;0.60;;;;;;;;;;5049264;28;20032;-66
2023/09/21 09:28:04;;;;;;;1.67;0.63;;;17.50;99.90;;;;;;5030470;28;20045;-66
2023/09/21 09:30:30;;;;;;;1.35;0.80;;;;;;;;;;5051607;28;20523;-66
2023/09/21 09:32:55;;;;;;;2.00;0.70;;;16.20;99.90;;;;;;5031304;28;20063;-66
2023/09/21 09:35:22;;;;;;;1.60;0.50;;;;;;;;;;5048568;28;20083;-66
2023/09/21 09:37:49;;;;;;;0.70;0.40;;;16.30;99.90;;;;;;5027581;28;20072;-67
2023/09/21 09:40:24;;;;;;;1.48;0.50;;;16.10;99.90;;;;;;5015232;28;20679;-66
2023/09/21 09:42:53;;;;;;;1.55;0.70;;;16.30;99.90;;;;;;5034221;28;20095;-66
2023/09/21 09:45:24;;;;;;;2.58;0.57;;;16.30;99.90;;;;;;5024735;28;20555;-67
2023/09/21 09:47:57;;;;;;;1.55;0.82;;;16.40;99.90;;;;;;5012866;28;20752;-66
2023/09/21 09:50:24;;;;;;;1.30;0.50;;;16.40;99.90;;;;;;5032045;28;20048;-66
2023/09/21 09:53:05;;;;;;;3.92;0.82;;;16.60;99.90;;;;;;5028476;28;20488;-66
2023/09/21 09:55:35;;;;;;;1.08;0.45;;;16.50;99.90;;;;;;5056566;28;20076;-66
2023/09/21 09:58:02;;;;;;;1.90;0.70;;;16.20;99.90;;;;;;5062429;28;20109;-66
2023/09/21 10:00:29;;;;;;;2.33;0.50;;;16.20;99.90;;;;;;5049619;28;20045;-66
2023/09/21 10:02:56;;;;;;;2.05;0.60;;;16.30;99.90;;;;;;5034405;28;20056;-66
2023/09/21 10:05:24;;;;;;;1.90;0.50;;;16.30;99.90;;;;;;5024535;28;20037;-67
2023/09/21 10:07:51;;;;;;;2.83;0.93;;;16.40;99.90;;;;;;5040005;28;20044;-65
2023/09/21 10:10:20;;;;;;;1.58;0.50;;;16.30;99.90;;;;;;5045264;28;20049;-65
2023/09/21 10:12:50;;;;;;;1.85;0.70;;;16.30;99.90;;;;;;5051584;28;20048;-65
2023/09/21 10:15:17;;;;;;;2.15;0.65;;;16.40;99.90;;;;;;5047247;28;20065;-65
2023/09/21 10:17:43;;;;;;;2.38;0.68;;;16.30;99.90;;;;;;5046074;28;20082;-65
2023/09/21 10:20:15;;;;;;;1.70;0.70;;;16.20;99.90;;;;;;5047822;28;20056;-65
2023/09/21 10:22:43;;;;;;;1.30;0.63;;;16.30;99.90;;;;;;5041681;28;20040;-65
2023/09/21 10:25:10;;;;;;;2.25;0.60;;;16.10;99.90;;;;;;5033151;28;20056;-65
2023/09/21 10:27:38;;;;;;;1.25;0.60;;;16.20;99.90;;;;;;5049343;28;20163;-65
2023/09/21 10:30:08;;;;;;;1.00;0.50;;;16.00;99.90;;;;;;5052584;28;20131;-65
2023/09/21 10:32:49;;;;;;;1.27;0.47;;;16.20;99.90;;;;;;5023180;28;20044;-65
2023/09/21 10:35:42;;;;;;;2.65;0.95;;;16.00;99.90;;;;;;5049447;28;20116;-65
2023/09/21 10:38:15;;;;;;;2.55;0.50;;;15.90;99.90;;;;;;5036192;28;20049;-65
2023/09/21 10:40:41;;;;;;;0.85;0.47;;;15.80;99.90;;;;;;5025153;28;20133;-65
2023/09/21 10:43:37;;;;;;;1.20;0.50;;;16.10;99.90;;;;;;5037303;28;20119;-65
2023/09/21 10:46:16;;;;;;;1.80;0.57;;;15.70;99.90;;;;;;5051057;28;20045;-65
2023/09/21 10:49:03;;;;;;;1.92;0.50;;;15.90;99.90;;;;;;5028228;28;20041;-66
2023/09/21 10:51:33;;;;;;;1.60;0.57;;;15.90;99.90;;;;;;5033509;28;20526;-66
2023/09/21 10:54:04;;;;;;;1.75;0.50;;;16.00;99.90;;;;;;5051728;28;20052;-66
2023/09/21 10:56:32;;;;;;;2.60;0.75;;;;;;;;;;5030227;28;20068;-65
2023/09/21 10:58:58;;;;;;;0.73;0.45;;;16.20;99.90;;;;;;5051661;28;20051;-65
2023/09/21 11:01:24;;;;;;;1.17;0.70;;;;;;;;;;5054450;28;20041;-65
2023/09/21 11:03:50;;;;;;;2.05;0.52;;;15.90;99.90;;;;;;5052959;28;20149;-66
2023/09/21 11:06:17;;;;;;;1.90;0.63;;;16.00;99.90;;;;;;5023370;28;20123;-65
2023/09/21 11:08:49;;;;;;;0.77;0.50;;;15.80;99.90;;;;;;5038270;28;20041;-66
2023/09/21 11:11:16;;;;;;;3.42;0.60;;;16.10;99.90;;;;;;5053123;28;20041;-65
2023/09/21 11:13:42;;;;;;;0.95;0.40;;;16.00;99.90;;;;;;5053304;28;20448;-65
2023/09/21 11:16:09;;;;;;;1.63;0.50;;;16.10;99.90;;;;;;5038300;28;20419;-65
2023/09/21 11:18:35;;;;;;;0.65;0.47;;;16.10;99.90;;;;;;5046978;28;20058;-66
2023/09/21 11:21:03;;;;;;;0.98;0.40;;;;;;;;;;5018806;28;20068;-66
2023/09/21 11:23:31;;;;;;;1.75;0.70;;;15.90;99.90;;;;;;5030482;28;20598;-66
2023/09/21 11:25:59;;;;;;;1.35;0.73;;;16.00;99.90;;;;;;5041973;28;20094;-66
2023/09/21 11:28:24;;;;;;;1.33;0.50;;;16.10;99.90;;;;;;5038568;28;20052;-66
2023/09/21 11:30:56;;;;;;;1.40;0.50;;;16.00;99.90;;;;;;5060426;28;20040;-66
2023/09/21 11:33:22;;;;;;;2.80;0.65;;;;;;;;;;5051475;28;20044;-65
2023/09/21 11:35:48;;;;;;;0.93;0.50;;;;;;;;;;5044746;28;20516;-66
2023/09/21 11:38:16;;;;;;;2.17;0.40;;;15.70;99.90;;;;;;5032639;28;20068;-66
2023/09/21 11:40:42;;;;;;;1.02;0.40;;;;;;;;;;5054079;28;20131;-66
2023/09/21 11:43:16;;;;;;;2.30;0.57;;;16.10;99.90;;;;;;5052595;28;20119;-66
2023/09/21 11:45:49;;;;;;;2.70;1.00;;;15.70;99.90;;;;;;5037778;28;20048;-65
2023/09/21 11:48:17;;;;;;;1.55;0.77;;;;;;;;;;5056512;28;20491;-65
2023/09/21 11:50:44;;;;;;;1.52;0.50;;;15.80;99.90;;;;;;5056584;28;20504;-65
2023/09/21 11:53:10;;;;;;;1.80;0.47;;;;;;;;;;5032644;28;20048;-66
2023/09/21 11:55:40;;;;;;;2.60;0.68;;;16.00;99.90;;;;;;5052442;28;20058;-66
2023/09/21 11:58:09;;;;;;;2.40;0.60;;;16.00;99.90;;;;;;5032611;28;20041;-66
2023/09/21 12:03:45;;;;;;;1.02;0.60;;;16.00;99.90;;;;;;4963680;28;20042;-65
2023/09/21 12:06:12;;;;;;;1.20;0.75;;;;;;;;;;5031588;28;20102;-65
2023/09/21 12:08:38;;;;;;;3.17;0.80;;;;;;;;;;5029629;28;20243;-65
2023/09/21 12:11:04;;;;;;;1.38;0.77;;;16.20;99.90;;;;;;5040389;28;20047;-65
2023/09/21 12:13:31;;;;;;;1.30;0.52;;;;;;;;;;5035819;28;20416;-65
2023/09/21 12:15:56;;;;;;;1.25;0.60;;;16.20;99.90;;;;;;5035528;28;20642;-65
2023/09/21 12:18:22;;;;;;;0.75;0.47;;;16.10;99.90;;;;;;5033045;28;20140;-65
2023/09/21 12:20:56;;;;;;;1.50;0.60;;;16.30;99.90;;;;;;5059608;28;20530;-65
2023/09/21 12:23:23;;;;;;;2.55;0.60;;;;;;;;;;5024832;28;20068;-65
2023/09/21 12:25:49;;;;;;;2.47;0.80;;;;;;;;;;5032591;28;20057;-65
2023/09/21 12:28:15;;;;;;;0.80;0.50;;;16.20;99.90;;;;;;5031418;28;20100;-65
2023/09/21 12:30:42;;;;;;;0.98;0.60;;;;;;;;;;5052480;28;20496;-65
2023/09/21 12:33:08;;;;;;;2.33;0.90;;;;;;;;;;5056124;28;20132;-65
2023/09/21 12:35:35;;;;;;;1.95;0.50;;;16.30;99.90;;;;;;5053043;28;20052;-65
2023/09/21 12:38:02;;;;;;;2.45;0.70;;;;;;;;;;5035325;28;20079;-65
2023/09/21 12:40:27;;;;;;;1.60;0.70;;;16.20;99.90;;;;;;5032263;28;20128;-65
2023/09/21 12:42:53;;;;;;;1.42;0.80;;;;;;;;;;5055891;28;20818;-65
2023/09/21 12:45:21;;;;;;;2.25;0.65;;;16.20;99.90;;;;;;5058774;28;20068;-65
2023/09/21 12:47:47;;;;;;;1.83;0.80;;;16.30;99.90;;;;;;5048458;28;20393;-65
2023/09/21 12:50:15;;;;;;;0.82;0.60;;;16.30;99.90;;;;;;5054161;28;20044;-65
2023/09/21 12:52:42;;;;;;;2.55;0.70;;;;;;;;;;5029053;28;20080;-65
2023/09/21 12:55:08;;;;;;;1.33;0.63;;;16.10;99.90;;;;;;5037476;28;20427;-65
2023/09/21 12:57:43;;;;;;;2.88;0.60;;;16.40;99.90;;;;;;5062106;28;20135;-65
2023/09/21 13:00:22;;;;;;;0.90;0.55;;;16.10;99.90;;;;;;5028162;28;20048;-65
2023/09/21 13:02:48;;;;;;;1.10;0.63;;;16.30;99.90;;;;;;5057597;28;20052;-65
2023/09/21 13:05:14;;;;;;;1.00;0.70;;;16.20;99.90;;;;;;5060442;28;20033;-65
2023/09/21 13:07:40;;;;;;;1.65;0.70;;;16.30;99.90;;;;;;5058335;28;20033;-65
2023/09/21 13:10:10;;;;;;;0.80;0.55;;;16.30;99.90;;;;;;5035549;28;20155;-65
2023/09/21 13:12:37;;;;;;;1.60;0.63;;;16.50;99.90;;;;;;5030239;28;20108;-65
2023/09/21 13:15:03;;;;;;;1.30;0.60;;;;;;;;;;5036756;28;20877;-65
2023/09/21 13:17:31;;;;;;;1.05;0.68;;;;;;;;;;5029174;28;20045;-65
2023/09/21 13:19:57;;;;;;;1.55;0.60;;;;;;;;;;5048502;28;20055;-65
2023/09/21 13:22:23;;;;;;;1.73;0.60;;;;;;;;;;5015463;28;20132;-65
2023/09/21 13:24:49;;;;;;;2.28;1.55;;;16.20;99.90;;;;;;5041927;28;20163;-64
2023/09/21 13:27:14;;;;;;;1.88;0.60;;;;;;;;;;5041292;28;20048;-65
2023/09/21 13:29:41;;;;;;;1.38;0.45;;;16.20;99.90;;;;;;5027340;28;20048;-65
2023/09/21 13:32:08;;;;;;;0.95;0.60;;;16.10;99.90;;;;;;5053052;28;20107;-65
2023/09/21 13:34:34;;;;;;;1.58;0.55;;;;;;;;;;5035765;28;20040;-65
2023/09/21 13:37:00;;;;;;;2.88;0.70;;;16.10;99.90;;;;;;5041289;28;20406;-65